Time;durP1;ratioP1;P1;durP2;ratioP2;P2;SDS_P1;SDS_P2;PMS_P1;PMS_P2;Temp;Humidity;BMP_temperature;BMP_pressure;BME280_temperature;BME280_humidity;BME280_pressure;Samples;Min_cycle;Max_cycle;Signal;HPM_P1;HPM_P2
2022/01/25 00:08:54;;;;;;;21.80;11.57;;;-1.10;99.90;;;;;;6155208;28;20023;-79
2022/01/25 00:25:11;;;;;;;17.05;11.05;;;-2.00;99.90;;;;;;6155061;28;20066;-77
2022/01/25 00:31:18;;;;;;;23.65;16.85;;;-1.60;99.90;;;;;;6153184;28;20102;-79
2022/01/25 00:34:19;;;;;;;29.55;18.85;;;-2.10;99.90;;;;;;6136677;28;20033;-81
2022/01/25 00:37:20;;;;;;;24.48;14.77;;;-0.90;99.90;;;;;;6152610;28;20057;-80
2022/01/25 00:40:20;;;;;;;18.45;11.95;;;-2.10;99.90;;;;;;6152390;28;20454;-80
2022/01/25 00:43:23;;;;;;;19.58;11.90;;;-2.00;99.90;;;;;;6136330;28;20034;-81
2022/01/25 00:46:24;;;;;;;16.25;10.60;;;-1.20;99.90;;;;;;6136399;28;20031;-79
2022/01/25 00:49:27;;;;;;;17.67;10.65;;;-0.70;99.90;;;;;;6152376;28;20441;-77
2022/01/25 00:55:37;;;;;;;14.93;9.10;;;-2.00;99.90;;;;;;6153801;28;20038;-78
2022/01/25 00:58:38;;;;;;;15.07;9.70;;;-1.80;99.90;;;;;;6152129;28;20035;-78
2022/01/25 01:01:38;;;;;;;15.50;9.27;;;-2.40;99.90;;;;;;6136377;28;20532;-79
2022/01/25 01:04:42;;;;;;;16.90;10.98;;;0.00;99.90;;;;;;6156709;28;20408;-79
2022/01/25 01:07:43;;;;;;;19.10;10.48;;;-2.40;99.90;;;;;;6156683;28;20043;-78
2022/01/25 01:10:43;;;;;;;17.38;9.73;;;-2.30;99.90;;;;;;6156476;28;20051;-78
2022/01/25 01:14:13;;;;;;;15.20;10.05;;;-1.70;99.90;;;;;;6156286;28;20042;-79
2022/01/25 01:17:35;;;;;;;15.55;10.57;;;-2.10;99.90;;;;;;6155803;28;20093;-79
2022/01/25 01:30:50;;;;;;;15.05;9.32;;;-1.30;99.90;;;;;;6158538;28;20959;-80
2022/01/25 01:43:52;;;;;;;13.57;9.63;;;-1.80;99.90;;;;;;6158635;28;20393;-80
2022/01/25 01:49:57;;;;;;;14.88;8.90;;;-2.10;99.90;;;;;;6155837;28;20031;-80
2022/01/25 01:52:57;;;;;;;14.07;9.15;;;-2.20;99.90;;;;;;6155360;28;20042;-79
2022/01/25 01:55:58;;;;;;;16.85;9.63;;;-2.10;99.90;;;;;;6139370;28;20034;-81
2022/01/25 01:59:02;;;;;;;21.15;10.10;;;-0.20;99.90;;;;;;6139059;28;20034;-79
2022/01/25 02:02:03;;;;;;;14.63;9.40;;;-2.20;99.90;;;;;;6155682;28;20030;-80
2022/01/25 02:05:04;;;;;;;16.33;10.18;;;-2.10;99.90;;;;;;6155040;28;20035;-78
2022/01/25 02:08:05;;;;;;;14.63;9.75;;;-2.10;99.90;;;;;;6155229;28;20415;-79
2022/01/25 02:11:06;;;;;;;14.13;9.30;;;-2.30;99.90;;;;;;6154839;28;20408;-78
2022/01/25 02:14:09;;;;;;;14.13;8.30;;;-1.70;99.90;;;;;;6154621;28;20457;-79
2022/01/25 02:17:26;;;;;;;14.40;8.63;;;-2.30;99.90;;;;;;6155334;28;20705;-78
2022/01/25 02:23:45;;;;;;;13.57;8.65;;;-1.50;99.90;;;;;;6157255;28;20038;-81
2022/01/25 02:26:46;;;;;;;12.88;8.90;;;-2.60;99.90;;;;;;6154817;28;20496;-78
2022/01/25 02:29:47;;;;;;;14.32;8.35;;;-2.20;99.90;;;;;;6138609;28;20401;-79
2022/01/25 02:32:47;;;;;;;12.63;8.98;;;-2.20;99.90;;;;;;6172148;28;20031;-80
2022/01/25 02:35:48;;;;;;;12.73;7.90;;;-2.40;99.90;;;;;;6138821;28;20065;-79
2022/01/25 02:38:48;;;;;;;11.75;8.48;;;-2.30;99.90;;;;;;6154298;28;20109;-79
2022/01/25 02:41:53;;;;;;;14.00;7.85;;;-2.70;99.90;;;;;;6138575;28;20037;-79
2022/01/25 02:44:54;;;;;;;15.70;8.32;;;-2.20;99.90;;;;;;6154239;28;20031;-79
2022/01/25 02:51:13;;;;;;;11.38;8.52;;;-2.30;99.90;;;;;;6156594;28;20050;-79
2022/01/25 02:54:15;;;;;;;14.60;7.97;;;-2.70;99.90;;;;;;6154322;28;20044;-80
2022/01/25 02:57:15;;;;;;;15.85;8.98;;;-2.70;99.90;;;;;;6138056;28;20109;-79
2022/01/25 03:00:16;;;;;;;11.65;8.05;;;-2.70;99.90;;;;;;6154192;28;20031;-80
2022/01/25 03:03:17;;;;;;;12.10;8.70;;;-2.30;99.90;;;;;;6137593;28;20079;-80
2022/01/25 03:06:19;;;;;;;14.57;8.90;;;-2.20;99.90;;;;;;6154015;28;20079;-80
2022/01/25 03:09:19;;;;;;;14.00;9.50;;;-1.20;99.90;;;;;;6153888;28;20026;-80
2022/01/25 03:12:31;;;;;;;12.55;8.23;;;-1.30;99.90;;;;;;6145718;28;20055;-79
2022/01/25 03:18:53;;;;;;;12.50;8.38;;;-2.00;99.90;;;;;;6146355;28;20390;-79
2022/01/25 03:21:55;;;;;;;10.63;7.95;;;-2.20;99.90;;;;;;6145738;29;20023;-79
2022/01/25 03:24:55;;;;;;;11.48;8.10;;;-2.90;99.90;;;;;;6129437;28;20560;-79
2022/01/25 03:27:57;;;;;;;14.70;8.40;;;-2.50;99.90;;;;;;6129138;29;20025;-79
2022/01/25 03:30:58;;;;;;;11.93;8.48;;;-1.00;99.90;;;;;;6129486;29;20039;-79
2022/01/25 03:33:58;;;;;;;11.77;8.10;;;-2.30;99.90;;;;;;6145443;29;20094;-80
2022/01/25 03:36:59;;;;;;;14.73;8.43;;;-2.80;99.90;;;;;;6145314;28;20028;-79
2022/01/25 03:40:00;;;;;;;13.48;9.02;;;-2.40;99.90;;;;;;6129702;29;20070;-81
2022/01/25 03:43:03;;;;;;;13.68;8.48;;;-2.50;99.90;;;;;;6129136;29;20057;-78
2022/01/25 03:46:11;;;;;;;15.45;9.48;;;-2.50;99.90;;;;;;6145335;29;20507;-80
2022/01/25 03:52:34;;;;;;;12.38;7.72;;;-0.90;99.90;;;;;;6145444;29;20036;-79
2022/01/25 03:55:35;;;;;;;14.20;8.93;;;-2.30;99.90;;;;;;6129470;29;20460;-80
2022/01/25 03:58:35;;;;;;;12.80;8.32;;;-2.80;99.90;;;;;;6145722;28;20030;-80
2022/01/25 04:01:36;;;;;;;15.13;8.77;;;-2.60;99.90;;;;;;6144986;28;20031;-79
2022/01/25 04:04:37;;;;;;;17.95;10.75;;;-1.40;99.90;;;;;;6145260;29;20494;-79
2022/01/25 04:07:49;;;;;;;20.67;11.57;;;-1.80;99.90;;;;;;6128971;29;20031;-80
2022/01/25 04:10:50;;;;;;;;;;;-2.30;99.90;;;;;;6150046;28;20109;-80
2022/01/25 04:13:52;;;;;;;15.30;7.80;;;-1.90;99.90;;;;;;6136691;28;19938;-80
2022/01/25 04:17:06;;;;;;;12.55;8.25;;;-0.60;99.90;;;;;;6152913;28;20031;-80
2022/01/25 04:26:36;;;;;;;21.50;12.35;;;-2.40;99.90;;;;;;6155155;28;20027;-80
2022/01/25 04:29:36;;;;;;;53.83;19.83;;;-2.80;99.90;;;;;;6153200;28;20433;-81
2022/01/25 04:32:47;;;;;;;48.95;17.77;;;-2.70;99.90;;;;;;6152519;28;20046;-80
2022/01/25 04:36:26;;;;;;;29.88;13.95;;;-1.00;99.90;;;;;;6138012;28;20031;-80
2022/01/25 04:49:19;;;;;;;16.83;9.27;;;-3.00;99.90;;;;;;6174056;28;20023;-79
2022/01/25 04:52:23;;;;;;;13.68;7.85;;;-2.00;99.90;;;;;;6158263;28;20049;-80
2022/01/25 04:55:35;;;;;;;12.35;6.72;;;-2.70;99.90;;;;;;6141213;28;20397;-79
2022/01/25 04:58:51;;;;;;;13.20;7.68;;;-2.80;99.90;;;;;;6158353;28;20035;-80
2022/01/25 05:01:57;;;;;;;9.20;6.38;;;-3.00;99.90;;;;;;6158755;28;20033;-80
2022/01/25 05:05:07;;;;;;;9.57;6.57;;;-2.80;99.90;;;;;;6141321;28;20038;-79
2022/01/25 05:14:30;;;;;;;56.33;18.20;;;-2.80;99.90;;;;;;6156537;28;20061;-80
2022/01/25 05:17:40;;;;;;;36.75;15.30;;;-2.80;99.90;;;;;;6157709;28;20595;-79
2022/01/25 05:23:59;;;;;;;27.52;12.50;;;-1.80;99.90;;;;;;6158775;28;20118;-80
2022/01/25 05:27:00;;;;;;;359.70;138.68;;;-3.10;99.90;;;;;;6156086;28;20033;-80
2022/01/25 05:30:00;;;;;;;27.80;16.95;;;-3.10;99.90;;;;;;6173499;28;20043;-78
2022/01/25 05:33:01;;;;;;;27.73;15.60;;;-1.70;99.90;;;;;;6155186;28;20026;-79
2022/01/25 05:36:02;;;;;;;12.57;8.30;;;-2.90;99.90;;;;;;6140195;28;20051;-84
2022/01/25 05:39:09;;;;;;;11.77;7.10;;;-2.10;99.90;;;;;;6139628;28;20035;-81
2022/01/25 05:42:30;;;;;;;14.85;8.63;;;-3.10;99.90;;;;;;6140349;28;20034;-86
2022/01/25 05:45:50;;;;;;;16.95;9.70;;;-3.00;99.90;;;;;;6156275;28;20362;-84
2022/01/25 05:48:51;;;;;;;20.77;11.45;;;-3.00;99.90;;;;;;6154660;28;20057;-80
2022/01/25 05:51:51;;;;;;;89.30;43.38;;;-1.40;99.90;;;;;;6155732;28;20070;-79
2022/01/25 05:54:52;;;;;;;76.68;36.85;;;-2.70;99.90;;;;;;6155270;28;20125;-81
2022/01/25 05:57:53;;;;;;;58.83;28.70;;;-0.90;99.90;;;;;;6139917;28;20042;-81
2022/01/25 06:00:54;;;;;;;80.63;37.10;;;-2.80;99.90;;;;;;6140599;28;20031;-81
2022/01/25 06:03:55;;;;;;;51.47;21.00;;;-0.90;99.90;;;;;;6139440;28;20034;-79
2022/01/25 06:06:56;;;;;;;45.97;20.10;;;-2.00;99.90;;;;;;6138695;28;20031;-81
2022/01/25 06:09:56;;;;;;;60.95;24.50;;;-2.00;99.90;;;;;;6138848;28;20034;-78
2022/01/25 06:12:57;;;;;;;113.43;44.95;;;-2.80;99.90;;;;;;6154711;28;20047;-79
2022/01/25 06:15:58;;;;;;;21.88;12.70;;;-2.40;99.90;;;;;;6155002;28;20081;-83
2022/01/25 06:18:58;;;;;;;14.95;10.05;;;-3.20;99.90;;;;;;6154672;28;20465;-79
2022/01/25 06:21:59;;;;;;;13.38;7.78;;;-1.00;99.90;;;;;;6137923;28;20046;-79
2022/01/25 06:25:00;;;;;;;13.68;8.27;;;-2.70;99.90;;;;;;6154851;28;20218;-79
2022/01/25 06:28:00;;;;;;;12.50;9.02;;;-1.40;99.90;;;;;;6138294;28;20034;-78
2022/01/25 06:31:01;;;;;;;10.95;8.35;;;-3.20;99.90;;;;;;6154725;28;20055;-80
2022/01/25 06:34:02;;;;;;;21.50;10.13;;;-2.70;99.90;;;;;;6154541;28;20041;-79
2022/01/25 06:37:03;;;;;;;129.60;38.30;;;-2.70;99.90;;;;;;6154057;28;20043;-78
2022/01/25 06:40:05;;;;;;;40.83;22.88;;;-2.70;99.90;;;;;;6153517;28;20066;-77
2022/01/25 06:43:05;;;;;;;11.70;7.93;;;-2.80;99.90;;;;;;6153976;28;20034;-79
2022/01/25 06:46:06;;;;;;;10.18;7.68;;;-3.20;99.90;;;;;;6170490;28;20081;-78
2022/01/25 06:49:06;;;;;;;12.02;8.23;;;-3.20;99.90;;;;;;6153885;28;20059;-80
2022/01/25 06:52:07;;;;;;;10.68;7.68;;;-2.60;99.90;;;;;;6154047;28;20109;-78
2022/01/25 06:55:09;;;;;;;9.82;6.78;;;-1.30;99.90;;;;;;6154100;28;20035;-79
2022/01/25 06:58:10;;;;;;;9.70;7.20;;;-2.70;99.90;;;;;;6154095;28;20513;-79
2022/01/25 07:01:10;;;;;;;44.33;22.40;;;-1.40;99.90;;;;;;6153949;28;20042;-83
2022/01/25 07:04:11;;;;;;;45.60;24.15;;;-3.00;99.90;;;;;;6153349;28;20385;-80
2022/01/25 07:07:12;;;;;;;9.77;6.88;;;-2.80;99.90;;;;;;6136489;28;20461;-80
2022/01/25 07:10:12;;;;;;;9.57;5.70;;;-1.60;99.90;;;;;;6170804;28;20046;-83
2022/01/25 07:13:13;;;;;;;8.60;5.78;;;-2.70;99.90;;;;;;6153253;28;20421;-79
2022/01/25 07:16:14;;;;;;;7.60;5.80;;;-2.70;99.90;;;;;;6153360;28;20035;-80
2022/01/25 07:19:14;;;;;;;10.18;6.03;;;-3.00;99.90;;;;;;6153883;28;20084;-79
2022/01/25 07:22:15;;;;;;;18.17;8.65;;;-1.30;99.90;;;;;;6136165;28;20031;-80
2022/01/25 07:25:15;;;;;;;22.40;11.07;;;-2.70;99.90;;;;;;6136972;28;20586;-78
2022/01/25 07:28:17;;;;;;;10.55;6.90;;;-2.60;99.90;;;;;;6152935;28;20026;-79
2022/01/25 07:31:17;;;;;;;14.88;8.98;;;-2.50;99.90;;;;;;6137304;28;20042;-78
2022/01/25 07:34:18;;;;;;;14.73;10.18;;;-2.60;99.90;;;;;;6152789;28;20067;-79
2022/01/25 07:37:18;;;;;;;10.73;7.43;;;-3.00;99.90;;;;;;6153614;28;20114;-79
2022/01/25 07:40:19;;;;;;;13.80;8.75;;;-2.60;99.90;;;;;;6135587;28;20034;-78
2022/01/25 07:43:19;;;;;;;12.68;8.38;;;-1.90;99.90;;;;;;6152042;28;20058;-79
2022/01/25 07:46:20;;;;;;;11.80;8.07;;;-2.70;99.90;;;;;;6152851;28;20370;-79
2022/01/25 07:49:21;;;;;;;9.43;6.45;;;-1.80;99.90;;;;;;6152429;28;20461;-81
2022/01/25 07:52:21;;;;;;;11.68;7.72;;;-0.50;99.90;;;;;;6150796;28;20408;-81
2022/01/25 07:55:22;;;;;;;10.93;7.20;;;0.20;99.90;;;;;;6137204;28;20130;-82
2022/01/25 07:58:23;;;;;;;10.63;7.07;;;1.00;99.90;;;;;;6136854;28;20551;-83
2022/01/25 08:01:24;;;;;;;17.40;9.63;;;1.40;99.90;;;;;;6153163;28;20041;-80
2022/01/25 08:04:25;;;;;;;9.18;6.47;;;2.70;99.90;;;;;;6136893;28;20031;-80
2022/01/25 08:07:25;;;;;;;9.77;6.55;;;3.20;99.90;;;;;;6152926;28;20031;-80
2022/01/25 08:10:26;;;;;;;12.80;6.38;;;3.50;99.90;;;;;;6135178;28;20073;-81
2022/01/25 08:13:26;;;;;;;11.20;7.43;;;4.20;99.90;;;;;;6138628;28;20481;-80
2022/01/25 08:16:27;;;;;;;10.57;7.63;;;4.70;99.90;;;;;;6156672;28;20060;-81
2022/01/25 08:19:28;;;;;;;23.38;13.90;;;5.40;99.90;;;;;;6141268;28;20030;-80
2022/01/25 08:22:28;;;;;;;18.98;11.18;;;5.70;99.90;;;;;;6157259;28;20098;-80
2022/01/25 08:25:29;;;;;;;9.65;6.88;;;5.90;99.90;;;;;;6141319;28;20046;-82
2022/01/25 08:28:30;;;;;;;8.65;6.13;;;6.30;99.90;;;;;;6156469;28;20026;-80
2022/01/25 08:31:31;;;;;;;9.70;7.07;;;6.30;99.90;;;;;;6157589;28;20042;-80
2022/01/25 08:34:32;;;;;;;10.95;7.55;;;6.60;99.90;;;;;;6157088;28;20039;-80
2022/01/25 08:37:32;;;;;;;11.95;7.57;;;6.70;99.90;;;;;;6141866;28;20126;-78
2022/01/25 08:40:34;;;;;;;12.57;7.00;;;6.90;99.90;;;;;;6157261;28;20393;-82
2022/01/25 08:43:35;;;;;;;8.43;6.50;;;7.30;98.90;;;;;;6156715;28;20050;-80
2022/01/25 08:46:35;;;;;;;11.10;6.88;;;7.30;98.70;;;;;;6153818;28;20487;-78
2022/01/25 08:49:36;;;;;;;10.40;7.57;;;7.60;98.60;;;;;;6133796;28;20080;-79
2022/01/25 08:52:37;;;;;;;13.00;7.80;;;7.80;97.30;;;;;;6138930;28;20039;-80
2022/01/25 08:55:37;;;;;;;11.95;8.73;;;7.90;96.40;;;;;;6140566;28;20031;-77
2022/01/25 08:58:40;;;;;;;9.90;7.72;;;7.70;95.90;;;;;;6140329;28;20034;-80
2022/01/25 09:01:40;;;;;;;;;;;7.60;96.60;;;;;;6156896;28;20026;-80
2022/01/25 09:04:41;;;;;;;10.73;8.55;;;7.80;97.70;;;;;;6155797;28;19914;-79
2022/01/25 09:07:42;;;;;;;10.98;8.13;;;8.20;96.10;;;;;;6157345;28;20035;-80
2022/01/25 09:10:42;;;;;;;8.45;7.22;;;8.50;95.30;;;;;;6156783;28;20555;-80
2022/01/25 09:13:43;;;;;;;9.10;6.95;;;9.20;94.50;;;;;;6156541;28;20077;-80
2022/01/25 09:16:43;;;;;;;8.00;5.80;;;9.30;93.30;;;;;;6156621;28;20019;-80
2022/01/25 09:19:44;;;;;;;9.32;6.00;;;9.40;92.60;;;;;;6156179;28;20046;-80
2022/01/25 09:22:45;;;;;;;7.68;5.75;;;9.40;92.30;;;;;;6155615;28;20038;-80
2022/01/25 09:25:49;;;;;;;8.77;6.63;;;9.30;92.50;;;;;;6154785;28;20059;-80
2022/01/25 09:28:54;;;;;;;8.75;7.10;;;9.30;91.60;;;;;;6155349;28;20041;-79
2022/01/25 09:31:55;;;;;;;10.35;7.65;;;9.50;92.40;;;;;;6155767;28;20057;-78
2022/01/25 09:34:55;;;;;;;10.07;7.50;;;9.40;91.30;;;;;;6155610;28;20412;-79
2022/01/25 09:37:56;;;;;;;14.38;7.80;;;9.40;91.40;;;;;;6139512;28;20031;-80
2022/01/25 09:40:57;;;;;;;12.48;8.43;;;9.70;91.30;;;;;;6154913;28;20392;-79
2022/01/25 09:43:57;;;;;;;9.85;7.25;;;10.00;90.80;;;;;;6137663;28;20483;-82
2022/01/25 09:46:58;;;;;;;9.98;7.68;;;10.20;90.70;;;;;;6138848;28;20027;-79
2022/01/25 09:49:59;;;;;;;10.68;8.43;;;10.20;90.30;;;;;;6154933;28;20154;-80
2022/01/25 09:53:00;;;;;;;10.00;7.57;;;10.10;90.90;;;;;;6138920;28;20378;-80
2022/01/25 09:56:01;;;;;;;9.55;7.93;;;10.20;90.80;;;;;;6139055;28;20077;-79
2022/01/25 09:59:01;;;;;;;11.30;7.90;;;10.50;90.40;;;;;;6155533;28;20055;-80
2022/01/25 10:02:02;;;;;;;14.40;11.02;;;10.80;88.50;;;;;;6139118;28;20030;-79
2022/01/25 10:05:31;;;;;;;85.50;52.10;;;10.90;88.50;;;;;;6155282;28;20039;-81
2022/01/25 10:08:34;;;;;;;18.35;12.98;;;11.20;87.80;;;;;;6156339;28;20176;-81
2022/01/25 10:11:37;;;;;;;;;;;11.20;87.10;;;;;;6155350;28;20054;-80
2022/01/25 10:14:37;;;;;;;18.10;12.20;;;11.50;84.40;;;;;;6138544;28;19960;-81
2022/01/25 10:17:41;;;;;;;16.13;12.02;;;12.00;83.30;;;;;;6155481;28;20039;-80
2022/01/25 10:20:47;;;;;;;14.07;10.27;;;12.00;81.70;;;;;;6138822;28;20034;-80
2022/01/25 10:24:08;;;;;;;12.60;9.52;;;12.50;79.50;;;;;;6154927;28;20026;-81
2022/01/25 10:27:09;;;;;;;15.23;11.05;;;13.20;75.40;;;;;;6155223;28;20355;-84
2022/01/25 10:30:10;;;;;;;14.98;10.70;;;13.60;73.10;;;;;;6154942;28;20509;-79
2022/01/25 10:33:27;;;;;;;13.07;9.80;;;13.90;71.90;;;;;;6154249;28;20043;-80
2022/01/25 10:36:28;;;;;;;15.43;11.57;;;14.00;72.30;;;;;;6155089;28;20035;-82
2022/01/25 10:39:33;;;;;;;18.38;13.65;;;14.40;71.40;;;;;;6154352;28;20536;-80
2022/01/25 10:42:35;;;;;;;16.17;10.77;;;14.60;70.20;;;;;;6154013;28;20085;-80
2022/01/25 10:45:36;;;;;;;16.45;12.05;;;14.90;68.20;;;;;;6154631;28;20018;-81
2022/01/25 10:48:41;;;;;;;15.65;11.75;;;14.90;68.40;;;;;;6138107;28;20034;-78
2022/01/25 10:51:45;;;;;;;15.25;11.90;;;14.90;68.50;;;;;;6138197;28;20049;-79
2022/01/25 10:54:46;;;;;;;14.60;10.65;;;15.00;69.40;;;;;;6154099;28;20416;-81
2022/01/25 10:57:56;;;;;;;16.15;10.75;;;15.00;69.10;;;;;;6154219;28;20031;-79
2022/01/25 11:00:59;;;;;;;12.95;9.82;;;14.80;69.60;;;;;;6136826;28;20855;-80
2022/01/25 11:04:10;;;;;;;12.65;10.18;;;14.70;70.30;;;;;;6154355;28;20023;-81
2022/01/25 11:07:11;;;;;;;11.07;9.52;;;14.40;69.90;;;;;;6154437;28;20091;-79
2022/01/25 11:10:19;;;;;;;12.60;9.88;;;14.30;72.80;;;;;;6153729;28;20078;-79
2022/01/25 11:13:35;;;;;;;13.82;10.13;;;14.40;70.50;;;;;;6153952;28;20085;-78
2022/01/25 11:16:36;;;;;;;13.70;9.95;;;14.50;69.90;;;;;;6155390;28;20023;-78
2022/01/25 11:19:36;;;;;;;14.15;10.40;;;14.10;71.10;;;;;;6153093;28;20524;-78
2022/01/25 11:22:37;;;;;;;16.23;11.82;;;13.90;71.60;;;;;;6152899;28;20473;-78
2022/01/25 11:25:38;;;;;;;14.73;10.75;;;13.60;72.70;;;;;;6153226;28;20034;-78
2022/01/25 11:28:39;;;;;;;13.95;11.35;;;13.40;72.70;;;;;;6153962;28;20385;-79
2022/01/25 11:31:41;;;;;;;15.13;10.95;;;13.30;73.60;;;;;;6152934;28;20076;-77
2022/01/25 11:34:43;;;;;;;17.90;12.70;;;13.10;74.10;;;;;;6153172;28;20031;-78
2022/01/25 11:37:45;;;;;;;21.65;15.65;;;12.90;74.70;;;;;;6152658;28;20446;-78
2022/01/25 11:40:46;;;;;;;31.20;22.00;;;12.80;75.00;;;;;;6152952;28;20035;-79
2022/01/25 11:44:14;;;;;;;30.10;20.85;;;12.60;76.10;;;;;;6153005;28;20122;-78
2022/01/25 11:47:16;;;;;;;25.42;19.25;;;12.40;77.30;;;;;;6151186;28;20122;-78
2022/01/25 11:50:17;;;;;;;25.55;18.95;;;12.10;77.20;;;;;;6151220;28;20063;-78
2022/01/25 11:53:18;;;;;;;24.95;18.08;;;11.90;78.40;;;;;;6151974;28;20034;-79
2022/01/25 11:56:19;;;;;;;25.40;18.42;;;11.80;78.70;;;;;;6152137;28;20118;-79
2022/01/25 11:59:20;;;;;;;24.77;18.48;;;11.80;79.00;;;;;;6150687;28;20025;-78
2022/01/25 12:02:37;;;;;;;30.40;21.88;;;11.80;78.50;;;;;;6168638;28;20036;-79
2022/01/25 12:05:39;;;;;;;36.33;20.30;;;11.90;77.60;;;;;;6152062;28;20030;-78
2022/01/25 12:09:07;;;;;;;35.13;30.87;;;11.70;77.90;;;;;;6151972;28;20105;-78
2022/01/25 12:12:11;;;;;;;24.27;19.63;;;11.60;80.30;;;;;;6155751;28;20073;-78
2022/01/25 12:15:13;;;;;;;24.77;19.55;;;11.70;80.00;;;;;;6152418;28;20129;-78
2022/01/25 12:18:57;;;;;;;22.63;18.38;;;11.50;80.30;;;;;;6169611;28;20412;-79
2022/01/25 12:22:03;;;;;;;33.97;21.55;;;11.70;79.40;;;;;;6152553;28;20038;-78
2022/01/25 12:28:28;;;;;;;23.58;17.10;;;11.60;80.50;;;;;;6169533;28;20448;-78
2022/01/25 12:31:29;;;;;;;22.00;17.00;;;11.60;80.90;;;;;;6152602;28;20464;-78
2022/01/25 12:34:29;;;;;;;22.35;15.50;;;11.60;80.80;;;;;;6151720;28;20041;-79
2022/01/25 12:37:46;;;;;;;22.15;15.65;;;11.60;79.60;;;;;;6152338;28;20038;-79
2022/01/25 12:40:55;;;;;;;16.27;12.52;;;11.50;80.40;;;;;;6169091;28;20031;-78
2022/01/25 12:43:58;;;;;;;18.17;12.05;;;11.30;78.30;;;;;;6152940;28;20432;-79
2022/01/25 12:46:58;;;;;;;20.20;13.27;;;11.20;78.20;;;;;;6135568;28;20038;-78
2022/01/25 12:49:59;;;;;;;30.77;15.57;;;11.10;78.90;;;;;;6151969;28;20392;-79
2022/01/25 12:53:00;;;;;;;20.92;12.45;;;10.80;79.40;;;;;;6151674;28;20486;-78
2022/01/25 12:56:07;;;;;;;14.82;11.35;;;10.60;79.60;;;;;;6136160;28;20037;-77
2022/01/25 12:59:12;;;;;;;18.05;13.02;;;10.50;80.10;;;;;;6154402;28;20097;-78
2022/01/25 13:02:19;;;;;;;18.98;14.13;;;10.50;83.80;;;;;;6156666;28;20038;-79
2022/01/25 13:05:21;;;;;;;22.30;13.27;;;10.60;84.10;;;;;;6140249;28;20034;-77
2022/01/25 13:08:26;;;;;;;17.13;13.38;;;10.60;83.10;;;;;;6140280;28;20085;-77
2022/01/25 13:11:41;;;;;;;18.80;13.45;;;10.70;84.00;;;;;;6148215;29;20592;-77
2022/01/25 13:14:50;;;;;;;19.65;13.95;;;10.80;82.40;;;;;;6147968;29;20035;-79
2022/01/25 13:17:51;;;;;;;20.25;13.60;;;10.90;83.30;;;;;;6148135;28;20038;-80
2022/01/25 13:21:03;;;;;;;22.23;13.50;;;11.00;85.60;;;;;;6147293;28;20031;-77
2022/01/25 13:24:11;;;;;;;17.88;12.82;;;10.90;85.80;;;;;;6131400;28;20434;-79
2022/01/25 13:27:14;;;;;;;17.35;13.10;;;10.80;85.60;;;;;;6148345;29;20033;-78
2022/01/25 13:33:35;;;;;;;18.25;13.57;;;10.70;85.70;;;;;;6147189;29;20468;-79
2022/01/25 13:36:36;;;;;;;18.75;14.20;;;10.60;86.70;;;;;;6131463;28;20053;-78
2022/01/25 13:39:40;;;;;;;28.20;16.13;;;10.60;87.30;;;;;;6146896;28;20572;-79
2022/01/25 13:42:55;;;;;;;23.42;17.15;;;10.50;88.10;;;;;;6148980;28;20306;-80
2022/01/25 13:45:58;;;;;;;26.52;18.42;;;10.50;88.90;;;;;;6132709;28;20038;-79
2022/01/25 13:49:01;;;;;;;29.42;19.48;;;10.40;89.10;;;;;;6127914;29;20039;-79
2022/01/25 13:52:04;;;;;;;26.20;18.70;;;10.40;90.60;;;;;;6131847;28;20042;-80
2022/01/25 13:55:09;;;;;;;30.42;21.15;;;10.30;90.70;;;;;;6147839;28;20035;-79
2022/01/25 13:58:30;;;;;;;27.58;18.63;;;10.20;90.80;;;;;;6148095;28;20030;-79
2022/01/25 14:01:31;;;;;;;24.35;17.17;;;10.10;91.40;;;;;;6147180;28;20027;-79
2022/01/25 14:04:33;;;;;;;25.35;18.30;;;9.90;91.10;;;;;;6148408;28;20031;-80
2022/01/25 14:07:37;;;;;;;22.45;16.42;;;9.80;91.20;;;;;;6147304;28;20031;-79
2022/01/25 14:10:43;;;;;;;25.00;16.95;;;9.80;91.00;;;;;;6148552;28;20043;-79
2022/01/25 14:23:49;;;;;;;24.00;17.80;;;9.50;92.40;;;;;;6156978;28;20027;-80
2022/01/25 14:26:49;;;;;;;28.48;19.67;;;9.40;92.30;;;;;;6154396;28;20037;-80
2022/01/25 14:29:51;;;;;;;27.58;18.10;;;9.30;93.00;;;;;;6154602;28;20066;-80
2022/01/25 14:33:02;;;;;;;29.48;19.63;;;9.30;93.20;;;;;;6154240;28;20050;-80
2022/01/25 14:36:05;;;;;;;31.00;19.58;;;9.20;93.20;;;;;;6171761;28;20416;-80
2022/01/25 14:39:06;;;;;;;26.40;18.20;;;9.10;93.10;;;;;;6137575;28;20479;-80
2022/01/25 14:42:11;;;;;;;29.63;19.38;;;9.00;93.50;;;;;;6153947;28;20030;-80
2022/01/25 14:45:14;;;;;;;24.58;18.50;;;8.90;94.00;;;;;;6154125;28;20027;-79
2022/01/25 14:48:15;;;;;;;25.90;18.17;;;8.80;94.20;;;;;;6138152;28;20118;-80
2022/01/25 14:51:15;;;;;;;30.95;20.17;;;8.60;94.50;;;;;;6154041;28;20069;-81
2022/01/25 14:54:26;;;;;;;26.65;19.58;;;8.70;94.50;;;;;;6153008;28;20031;-79
2022/01/25 14:57:37;;;;;;;26.05;18.67;;;8.60;94.90;;;;;;6171185;28;20491;-80
2022/01/25 15:00:45;;;;;;;29.63;19.10;;;8.50;95.20;;;;;;6154869;28;20345;-77
2022/01/25 15:03:45;;;;;;;28.00;19.33;;;8.40;95.60;;;;;;6153706;28;20034;-80
2022/01/25 15:06:46;;;;;;;25.45;18.15;;;8.40;96.20;;;;;;6153154;28;20045;-80
2022/01/25 15:09:58;;;;;;;27.25;18.50;;;8.30;96.10;;;;;;6153697;28;20058;-80
2022/01/25 15:12:59;;;;;;;26.73;18.42;;;8.30;96.50;;;;;;6138708;28;20051;-80
2022/01/25 15:15:59;;;;;;;27.55;16.52;;;8.20;96.90;;;;;;6151950;28;20117;-80
2022/01/25 15:19:00;;;;;;;24.23;15.85;;;8.90;97.10;;;;;;6170291;28;20089;-80
2022/01/25 15:22:01;;;;;;;24.45;15.15;;;8.00;97.30;;;;;;6153482;28;20114;-79
2022/01/25 15:25:02;;;;;;;21.80;15.52;;;7.90;97.80;;;;;;6153401;28;20023;-79
2022/01/25 15:28:03;;;;;;;21.77;14.40;;;7.80;98.10;;;;;;6171969;28;20397;-83
2022/01/25 15:31:05;;;;;;;27.27;14.75;;;7.80;98.10;;;;;;6155162;28;20469;-80
2022/01/25 15:34:06;;;;;;;21.83;14.87;;;7.80;98.10;;;;;;6150319;28;20035;-79
2022/01/25 15:37:07;;;;;;;24.45;15.15;;;7.70;98.20;;;;;;6151669;28;20026;-82
2022/01/25 15:40:08;;;;;;;19.63;11.55;;;7.60;98.60;;;;;;6149378;28;20026;-80
2022/01/25 15:43:10;;;;;;;17.73;10.95;;;7.50;99.00;;;;;;6151234;28;20051;-77
2022/01/25 15:46:19;;;;;;;16.50;10.63;;;7.40;99.20;;;;;;6151163;28;20478;-81
2022/01/25 15:49:20;;;;;;;13.80;8.80;;;7.30;99.70;;;;;;6136311;28;20027;-79
2022/01/25 15:52:21;;;;;;;15.73;10.93;;;7.10;99.60;;;;;;6151081;28;20045;-79
2022/01/25 15:55:21;;;;;;;18.05;11.05;;;7.00;99.90;;;;;;6137122;28;20121;-79
2022/01/25 15:58:22;;;;;;;19.88;11.45;;;6.70;99.90;;;;;;6152510;28;20535;-79
2022/01/25 16:01:23;;;;;;;17.80;10.85;;;6.40;99.90;;;;;;6152770;28;20084;-79
2022/01/25 16:04:25;;;;;;;21.95;11.43;;;6.30;99.90;;;;;;6152799;28;20599;-77
2022/01/25 16:07:26;;;;;;;21.88;10.23;;;6.10;99.90;;;;;;6151959;28;20396;-79
2022/01/25 16:10:31;;;;;;;21.90;11.77;;;5.90;99.90;;;;;;6152091;28;20045;-78
2022/01/25 16:13:31;;;;;;;19.55;11.40;;;5.70;99.90;;;;;;6169283;28;20038;-79
2022/01/25 16:16:32;;;;;;;20.27;11.82;;;5.40;99.90;;;;;;6151968;28;20407;-77
2022/01/25 16:19:33;;;;;;;20.60;11.65;;;5.30;99.90;;;;;;6152172;28;20063;-81
2022/01/25 16:22:34;;;;;;;18.40;11.60;;;5.10;99.90;;;;;;6151614;28;20031;-77
2022/01/25 16:25:35;;;;;;;20.92;12.68;;;4.90;99.90;;;;;;6152284;28;20050;-78
2022/01/25 16:28:36;;;;;;;20.05;14.95;;;4.80;99.90;;;;;;6152512;28;20031;-79
2022/01/25 16:31:38;;;;;;;25.40;15.13;;;4.70;99.90;;;;;;6169670;28;20567;-80
2022/01/25 16:34:39;;;;;;;23.35;15.23;;;4.60;99.90;;;;;;6139659;28;20039;-79
2022/01/25 16:37:40;;;;;;;28.17;16.15;;;4.50;99.90;;;;;;6156147;28;20034;-79
2022/01/25 16:40:40;;;;;;;28.48;17.85;;;4.30;99.90;;;;;;6139011;28;20125;-81
2022/01/25 16:43:41;;;;;;;25.25;17.88;;;4.40;99.90;;;;;;6157508;28;20031;-77
2022/01/25 16:46:42;;;;;;;30.50;18.60;;;4.10;99.90;;;;;;6156214;28;20479;-79
2022/01/25 16:49:43;;;;;;;27.70;15.05;;;4.00;99.90;;;;;;6156836;28;20384;-79
2022/01/25 16:52:44;;;;;;;24.35;14.77;;;3.80;99.90;;;;;;6156664;28;20039;-79
2022/01/25 16:55:45;;;;;;;21.52;13.85;;;4.20;99.90;;;;;;6156767;28;20031;-79
2022/01/25 16:58:47;;;;;;;21.65;14.07;;;3.80;99.90;;;;;;6156634;28;20085;-81
2022/01/25 17:01:47;;;;;;;20.45;13.75;;;3.70;99.90;;;;;;6157534;28;20111;-80
2022/01/25 17:04:48;;;;;;;20.52;13.35;;;4.70;99.90;;;;;;6156531;28;20039;-79
2022/01/25 17:07:48;;;;;;;20.30;12.40;;;3.60;99.90;;;;;;6140926;28;20042;-78
2022/01/25 17:10:50;;;;;;;22.80;13.02;;;3.50;99.90;;;;;;6156383;28;20046;-80
2022/01/25 17:13:51;;;;;;;22.33;14.02;;;3.50;99.90;;;;;;6138633;28;20403;-81
2022/01/25 17:16:51;;;;;;;23.95;13.77;;;3.50;99.90;;;;;;6140592;28;20086;-83
2022/01/25 17:19:52;;;;;;;25.58;15.57;;;3.40;99.90;;;;;;6156021;28;20046;-84
2022/01/25 17:22:54;;;;;;;25.10;15.65;;;3.30;99.90;;;;;;6138627;28;20393;-80
2022/01/25 17:25:54;;;;;;;25.00;14.30;;;3.60;99.90;;;;;;6156508;28;20134;-81